Time;durP1;ratioP1;P1;durP2;ratioP2;P2;SDS_P1;SDS_P2;PMS_P1;PMS_P2;Temp;Humidity;BMP_temperature;BMP_pressure;BME280_temperature;BME280_humidity;BME280_pressure;Samples;Min_cycle;Max_cycle;Signal;HPM_P1;HPM_P2
2022/03/23 00:01:39;;;;;;;37.08;19.13;;;5.90;99.90;;;;;;6162779;23;20074;-81
2022/03/23 00:04:05;;;;;;;39.80;17.80;;;5.80;99.90;;;;;;6163272;23;20017;-81
2022/03/23 00:06:32;;;;;;;41.92;17.98;;;5.90;99.90;;;;;;6163316;23;20017;-81
2022/03/23 00:08:57;;;;;;;40.20;18.83;;;5.80;99.90;;;;;;6163295;23;20445;-81
2022/03/23 00:11:24;;;;;;;38.47;18.45;;;5.80;99.90;;;;;;6163314;23;20013;-81
2022/03/23 00:13:50;;;;;;;38.15;18.88;;;5.80;99.90;;;;;;6163189;23;20019;-81
2022/03/23 00:16:15;;;;;;;39.47;17.83;;;5.80;99.90;;;;;;6161898;23;20088;-81
2022/03/23 00:18:41;;;;;;;42.70;19.48;;;5.80;99.90;;;;;;6163529;23;20017;-81
2022/03/23 00:21:07;;;;;;;47.65;20.50;;;5.70;99.90;;;;;;6162863;23;20017;-81
2022/03/23 00:23:33;;;;;;;38.00;18.30;;;5.70;99.90;;;;;;6163044;23;20009;-81
2022/03/23 00:25:59;;;;;;;37.67;18.10;;;5.70;99.90;;;;;;6162434;23;20021;-81
2022/03/23 00:28:28;;;;;;;40.60;19.10;;;5.70;99.90;;;;;;6138111;23;20024;-81
2022/03/23 00:30:54;;;;;;;40.40;18.90;;;5.60;99.90;;;;;;6162204;23;20458;-81
2022/03/23 00:33:22;;;;;;;37.22;17.02;;;5.60;99.90;;;;;;6161632;23;20013;-81
2022/03/23 00:35:49;;;;;;;43.72;18.55;;;5.60;99.90;;;;;;6162203;23;20088;-81
2022/03/23 00:38:15;;;;;;;44.58;18.38;;;5.60;99.90;;;;;;6162554;23;20020;-81
2022/03/23 00:40:43;;;;;;;40.25;17.95;;;5.60;99.90;;;;;;6162476;23;20031;-81
2022/03/23 00:43:09;;;;;;;37.53;17.40;;;5.50;99.90;;;;;;6138532;23;20009;-81
2022/03/23 00:45:34;;;;;;;42.50;18.58;;;5.60;99.90;;;;;;6137913;23;20045;-81
2022/03/23 00:48:00;;;;;;;38.67;19.85;;;5.50;99.90;;;;;;6162308;23;20454;-81
2022/03/23 00:50:26;;;;;;;50.42;19.42;;;5.50;99.90;;;;;;6160976;23;20051;-81
2022/03/23 00:52:52;;;;;;;42.95;20.55;;;5.50;99.90;;;;;;6162061;23;20013;-81
2022/03/23 00:55:18;;;;;;;43.35;19.20;;;5.40;99.90;;;;;;6162030;23;20009;-81
2022/03/23 00:57:43;;;;;;;42.13;20.13;;;5.40;99.90;;;;;;6161662;23;20450;-81
2022/03/23 01:00:12;;;;;;;44.03;19.00;;;5.40;99.90;;;;;;6162205;23;20013;-81
2022/03/23 01:02:41;;;;;;;39.83;19.38;;;5.30;99.90;;;;;;6161790;23;20013;-81
2022/03/23 01:05:08;;;;;;;39.00;18.92;;;5.30;99.90;;;;;;6162077;23;20063;-81
2022/03/23 01:07:34;;;;;;;43.92;17.27;;;5.30;99.90;;;;;;6162149;23;20020;-81
2022/03/23 01:10:00;;;;;;;46.67;17.90;;;5.30;99.90;;;;;;6162000;23;20024;-81
2022/03/23 01:12:26;;;;;;;44.03;19.52;;;5.20;99.90;;;;;;6163091;23;20009;-81
2022/03/23 01:14:51;;;;;;;40.45;18.50;;;5.20;99.90;;;;;;6162005;23;20013;-81
2022/03/23 01:17:17;;;;;;;42.83;18.98;;;5.20;99.90;;;;;;6162095;23;20017;-81
2022/03/23 01:19:43;;;;;;;45.70;20.38;;;5.20;99.90;;;;;;6161797;23;20021;-81
2022/03/23 01:22:08;;;;;;;37.17;17.92;;;5.10;99.90;;;;;;6161932;23;20353;-81
2022/03/23 01:24:35;;;;;;;41.88;18.42;;;5.00;99.90;;;;;;6161587;23;20013;-81
2022/03/23 01:27:01;;;;;;;51.17;20.63;;;5.00;99.90;;;;;;6161290;23;20052;-81
2022/03/23 01:29:27;;;;;;;43.90;19.08;;;5.00;99.90;;;;;;6160814;23;20021;-81
2022/03/23 01:31:53;;;;;;;48.33;19.95;;;5.00;99.90;;;;;;6160838;23;20075;-81
2022/03/23 01:34:18;;;;;;;53.83;21.88;;;5.00;99.90;;;;;;6160456;23;20020;-81
2022/03/23 01:36:44;;;;;;;42.55;19.77;;;5.00;99.90;;;;;;6161344;23;20391;-81
2022/03/23 01:39:10;;;;;;;38.25;19.52;;;5.10;99.90;;;;;;6161435;23;20021;-80
2022/03/23 01:41:37;;;;;;;41.92;20.33;;;5.10;99.90;;;;;;6161804;23;20017;-81
2022/03/23 01:44:19;;;;;;;41.45;20.15;;;5.10;99.90;;;;;;6161036;23;20020;-81
2022/03/23 01:47:10;;;;;;;47.28;20.13;;;5.10;99.90;;;;;;6136712;23;20013;-80
2022/03/23 01:49:39;;;;;;;41.42;20.60;;;5.10;99.90;;;;;;6136162;23;20459;-81
2022/03/23 01:52:06;;;;;;;44.08;20.65;;;5.00;99.90;;;;;;6161779;23;20020;-81
2022/03/23 01:54:33;;;;;;;47.92;20.67;;;5.00;99.90;;;;;;6161356;23;20009;-81
2022/03/23 01:56:59;;;;;;;46.33;21.52;;;5.10;99.90;;;;;;6161141;23;20009;-81
2022/03/23 01:59:26;;;;;;;47.65;18.65;;;5.10;99.90;;;;;;6136592;23;20044;-81
2022/03/23 02:01:54;;;;;;;49.25;21.15;;;5.00;99.90;;;;;;6159865;23;20021;-81
2022/03/23 02:04:20;;;;;;;45.20;19.90;;;5.00;99.90;;;;;;6159497;23;20559;-81
2022/03/23 02:06:48;;;;;;;47.28;20.48;;;5.00;99.90;;;;;;6160921;23;20096;-81
2022/03/23 02:09:17;;;;;;;41.85;18.85;;;5.00;99.90;;;;;;6136263;23;20017;-81
2022/03/23 02:11:43;;;;;;;48.08;18.63;;;5.00;99.90;;;;;;6160737;23;20008;-80
2022/03/23 02:14:12;;;;;;;45.75;19.80;;;5.00;99.90;;;;;;6160969;23;20016;-81
2022/03/23 02:16:51;;;;;;;41.83;19.23;;;4.90;99.90;;;;;;6160509;23;20088;-81
2022/03/23 02:19:18;;;;;;;47.30;21.05;;;4.90;99.90;;;;;;6160268;23;20048;-81
2022/03/23 02:21:53;;;;;;;48.72;20.08;;;4.90;99.90;;;;;;6136214;23;20017;-81
2022/03/23 02:24:23;;;;;;;48.20;19.67;;;4.90;99.90;;;;;;6160840;23;20017;-81
2022/03/23 02:26:49;;;;;;;49.10;20.30;;;4.80;99.90;;;;;;6161658;23;20602;-81
2022/03/23 02:29:15;;;;;;;45.30;18.98;;;4.80;99.90;;;;;;6161079;23;20481;-80
2022/03/23 02:31:40;;;;;;;45.40;17.73;;;4.90;99.90;;;;;;6164127;23;20009;-80
2022/03/23 02:34:06;;;;;;;39.95;19.08;;;4.80;99.90;;;;;;6164410;23;20013;-80
2022/03/23 02:36:32;;;;;;;39.88;20.42;;;4.80;99.90;;;;;;6166461;23;20013;-80
2022/03/23 02:38:57;;;;;;;38.08;17.73;;;4.80;99.90;;;;;;6140730;23;20077;-79
2022/03/23 02:41:23;;;;;;;41.78;18.42;;;4.80;99.90;;;;;;6165119;23;20018;-80
2022/03/23 02:43:49;;;;;;;37.38;18.30;;;4.80;99.90;;;;;;6165867;23;20036;-79
2022/03/23 02:46:17;;;;;;;42.35;20.25;;;4.70;99.90;;;;;;6165491;23;20040;-80
2022/03/23 02:48:44;;;;;;;40.75;19.33;;;4.70;99.90;;;;;;6165224;23;20085;-80
2022/03/23 02:51:09;;;;;;;44.20;19.70;;;4.60;99.90;;;;;;6140232;23;20019;-79
2022/03/23 03:02:37;;;;;;;49.13;19.48;;;4.50;99.90;;;;;;6165502;23;20087;-80
2022/03/23 03:05:08;;;;;;;41.55;17.98;;;4.50;99.90;;;;;;6165195;23;20044;-80
2022/03/23 03:10:20;;;;;;;43.35;19.00;;;4.40;99.90;;;;;;6165857;23;20032;-80
2022/03/23 03:12:46;;;;;;;44.30;20.48;;;4.50;99.90;;;;;;6164691;23;20013;-80
2022/03/23 03:15:13;;;;;;;40.92;20.00;;;4.40;99.90;;;;;;6166863;23;20013;-80
2022/03/23 03:17:39;;;;;;;41.03;19.13;;;4.40;99.90;;;;;;6168063;23;20009;-80
2022/03/23 03:20:06;;;;;;;40.03;18.63;;;4.40;99.90;;;;;;6166688;23;20081;-80
2022/03/23 03:22:34;;;;;;;42.25;20.45;;;4.40;99.90;;;;;;6168148;23;20021;-80
2022/03/23 03:25:00;;;;;;;37.67;18.70;;;4.30;99.90;;;;;;6168581;23;20013;-80
2022/03/23 03:27:26;;;;;;;42.22;18.88;;;4.40;99.90;;;;;;6166694;23;20017;-79
2022/03/23 03:29:52;;;;;;;41.28;18.95;;;4.40;99.90;;;;;;6166618;23;20439;-80
2022/03/23 03:32:17;;;;;;;43.20;19.02;;;4.30;99.90;;;;;;6165895;23;20016;-80
2022/03/23 03:34:43;;;;;;;41.00;17.75;;;4.30;99.90;;;;;;6164349;23;20009;-80
2022/03/23 03:37:09;;;;;;;44.40;17.80;;;4.20;99.90;;;;;;6165045;23;20419;-80
2022/03/23 03:39:34;;;;;;;43.30;18.92;;;4.20;99.90;;;;;;6164165;23;20020;-79
2022/03/23 03:42:01;;;;;;;44.47;19.08;;;4.20;99.90;;;;;;6168461;23;20013;-79
2022/03/23 03:44:26;;;;;;;41.47;18.48;;;4.10;99.90;;;;;;6166596;23;20031;-79
2022/03/23 03:46:52;;;;;;;42.28;19.10;;;4.10;99.90;;;;;;6166223;23;20056;-80
2022/03/23 03:49:18;;;;;;;41.45;18.25;;;4.10;99.90;;;;;;6142293;23;20411;-79
2022/03/23 03:51:44;;;;;;;41.20;18.83;;;4.00;99.90;;;;;;6169069;23;20040;-80
2022/03/23 03:54:09;;;;;;;43.80;18.85;;;4.00;99.90;;;;;;6168841;23;20013;-79
2022/03/23 03:56:35;;;;;;;44.15;19.92;;;4.00;99.90;;;;;;6168854;23;20394;-79
2022/03/23 03:59:00;;;;;;;46.08;20.85;;;4.00;99.90;;;;;;6144061;23;20088;-79
2022/03/23 04:01:26;;;;;;;42.08;18.83;;;4.00;99.90;;;;;;6168814;23;20052;-79
2022/03/23 04:03:51;;;;;;;42.95;20.05;;;3.90;99.90;;;;;;6168949;23;20032;-79
2022/03/23 04:06:17;;;;;;;41.20;19.58;;;3.90;99.90;;;;;;6167763;23;20028;-79
2022/03/23 04:08:42;;;;;;;42.10;19.52;;;3.90;99.90;;;;;;6169093;23;20020;-79
2022/03/23 04:11:08;;;;;;;42.80;21.13;;;3.80;99.90;;;;;;6167215;23;20009;-79
2022/03/23 04:13:34;;;;;;;52.72;21.67;;;3.80;99.90;;;;;;6169113;23;20013;-79
2022/03/23 04:15:59;;;;;;;46.80;21.08;;;3.80;99.90;;;;;;6143696;23;20024;-79
2022/03/23 04:18:25;;;;;;;39.65;18.88;;;3.80;99.90;;;;;;6168305;23;20016;-79
2022/03/23 04:20:50;;;;;;;41.28;19.90;;;3.80;99.90;;;;;;6168137;23;20021;-79
2022/03/23 04:23:16;;;;;;;39.00;19.00;;;3.80;99.90;;;;;;6167097;23;20013;-79
2022/03/23 04:25:42;;;;;;;46.03;21.50;;;3.80;99.90;;;;;;6166958;23;20021;-80
2022/03/23 04:28:07;;;;;;;44.72;19.15;;;3.80;99.90;;;;;;6167412;23;20490;-80
2022/03/23 04:30:33;;;;;;;46.50;19.92;;;3.80;99.90;;;;;;6166133;23;20073;-79
2022/03/23 04:33:00;;;;;;;48.38;19.85;;;3.80;99.90;;;;;;6167851;23;20023;-79
2022/03/23 04:35:26;;;;;;;45.10;19.25;;;3.70;99.90;;;;;;6166822;23;20079;-79
2022/03/23 04:37:52;;;;;;;41.80;18.75;;;3.70;99.90;;;;;;6167894;23;20017;-79
2022/03/23 04:40:19;;;;;;;54.20;19.83;;;3.70;99.90;;;;;;6167818;23;20079;-79
2022/03/23 04:42:45;;;;;;;41.38;18.95;;;3.70;99.90;;;;;;6167891;23;20096;-79
2022/03/23 04:45:13;;;;;;;49.75;22.45;;;3.70;99.90;;;;;;6166077;23;20069;-79
2022/03/23 04:47:39;;;;;;;44.50;19.95;;;3.70;99.90;;;;;;6165574;23;20021;-79
2022/03/23 04:50:08;;;;;;;47.47;17.98;;;3.70;99.90;;;;;;6164838;23;20045;-79
2022/03/23 04:52:35;;;;;;;44.58;19.42;;;3.60;99.90;;;;;;6142040;23;20051;-79
2022/03/23 04:55:00;;;;;;;46.05;20.40;;;3.60;99.90;;;;;;6165967;23;20055;-79
2022/03/23 04:57:27;;;;;;;47.08;20.35;;;3.60;99.90;;;;;;6168561;23;20021;-79
2022/03/23 04:59:58;;;;;;;48.50;21.40;;;3.60;99.90;;;;;;6167584;23;20689;-79
2022/03/23 05:02:25;;;;;;;49.00;20.53;;;3.60;99.90;;;;;;6168119;23;20013;-79
2022/03/23 05:04:51;;;;;;;46.60;21.20;;;3.60;99.90;;;;;;6165732;23;20054;-80
2022/03/23 05:07:16;;;;;;;43.40;20.90;;;3.60;99.90;;;;;;6163167;23;20017;-80
2022/03/23 05:09:42;;;;;;;49.53;21.50;;;3.60;99.90;;;;;;6162893;23;20017;-80
2022/03/23 05:12:08;;;;;;;47.33;21.63;;;3.70;99.90;;;;;;6135439;23;20013;-80
2022/03/23 05:14:34;;;;;;;45.60;20.77;;;3.60;99.90;;;;;;6159572;23;20013;-80
2022/03/23 05:17:00;;;;;;;43.72;19.67;;;3.60;99.90;;;;;;6159708;23;20013;-80
2022/03/23 05:19:26;;;;;;;45.50;21.48;;;3.60;99.90;;;;;;6160484;23;20071;-80
2022/03/23 05:21:51;;;;;;;45.28;21.98;;;3.60;99.90;;;;;;6159610;23;20009;-80
2022/03/23 05:24:17;;;;;;;52.33;20.88;;;3.70;99.90;;;;;;6159397;23;20067;-80
2022/03/23 05:26:42;;;;;;;51.10;21.65;;;3.60;99.90;;;;;;6158943;23;20020;-80
2022/03/23 05:29:09;;;;;;;47.92;21.15;;;3.60;99.90;;;;;;6158922;23;20055;-80
2022/03/23 05:31:35;;;;;;;41.90;20.50;;;3.60;99.90;;;;;;6134369;23;20072;-80
2022/03/23 05:34:00;;;;;;;52.80;20.52;;;3.60;99.90;;;;;;6159215;23;20454;-80
2022/03/23 05:36:26;;;;;;;52.15;22.38;;;3.60;99.90;;;;;;6158701;23;20041;-80
2022/03/23 05:38:51;;;;;;;51.08;21.60;;;3.60;99.90;;;;;;6159748;23;20017;-80
2022/03/23 05:41:17;;;;;;;47.20;20.98;;;3.60;99.90;;;;;;6159855;23;20485;-80
2022/03/23 05:43:43;;;;;;;40.20;20.67;;;3.60;99.90;;;;;;6160230;23;20016;-80
2022/03/23 05:46:08;;;;;;;46.15;19.83;;;3.60;99.90;;;;;;6160283;23;20024;-80
2022/03/23 05:48:34;;;;;;;48.15;20.65;;;3.60;99.90;;;;;;6159540;23;20017;-80
2022/03/23 05:51:00;;;;;;;49.03;20.33;;;3.50;99.90;;;;;;6159747;23;20077;-80
2022/03/23 05:53:25;;;;;;;45.83;19.52;;;3.60;99.90;;;;;;6159867;23;20338;-80
2022/03/23 05:55:51;;;;;;;46.40;20.15;;;3.60;99.90;;;;;;6159914;23;20009;-80
2022/03/23 05:58:17;;;;;;;42.58;20.38;;;3.60;99.90;;;;;;6159802;23;20016;-80
2022/03/23 06:00:43;;;;;;;41.65;18.48;;;3.60;99.90;;;;;;6160283;23;20407;-80
2022/03/23 06:03:09;;;;;;;42.63;19.60;;;3.70;99.90;;;;;;6160104;23;20093;-80
2022/03/23 06:05:34;;;;;;;44.47;19.73;;;3.70;99.90;;;;;;6159911;23;20044;-80
2022/03/23 06:08:00;;;;;;;41.20;20.30;;;3.80;99.90;;;;;;6159504;23;20063;-80
2022/03/23 06:10:25;;;;;;;39.42;18.38;;;3.80;99.90;;;;;;6160772;23;20017;-81
2022/03/23 06:12:51;;;;;;;45.38;20.63;;;3.70;99.90;;;;;;6160422;23;20354;-80
2022/03/23 06:15:18;;;;;;;39.90;18.40;;;3.80;99.90;;;;;;6159493;23;20023;-80
2022/03/23 06:17:43;;;;;;;39.25;17.10;;;3.80;99.90;;;;;;6159262;23;20005;-80
2022/03/23 06:20:10;;;;;;;46.95;20.50;;;3.90;99.90;;;;;;6158181;23;20390;-81
2022/03/23 06:22:35;;;;;;;103.40;48.08;;;3.90;99.90;;;;;;6136020;23;20013;-83
2022/03/23 06:25:01;;;;;;;50.60;22.48;;;4.00;99.90;;;;;;6159783;23;20331;-82
2022/03/23 06:27:27;;;;;;;52.30;22.15;;;4.00;99.90;;;;;;6159485;23;20017;-82
2022/03/23 06:29:53;;;;;;;47.05;18.35;;;4.10;99.90;;;;;;6159957;23;20021;-82
2022/03/23 06:32:18;;;;;;;39.22;18.45;;;4.20;99.90;;;;;;6159115;23;20450;-82
2022/03/23 06:34:44;;;;;;;44.15;20.00;;;4.30;99.90;;;;;;6159757;23;20080;-83
2022/03/23 06:37:09;;;;;;;49.03;19.95;;;4.40;99.90;;;;;;6159638;23;20013;-83
2022/03/23 06:39:35;;;;;;;47.50;21.23;;;4.50;99.90;;;;;;6134535;23;20020;-82
2022/03/23 06:42:01;;;;;;;44.88;21.00;;;4.70;99.90;;;;;;6159616;23;20028;-82
2022/03/23 06:44:27;;;;;;;44.95;20.90;;;4.80;99.90;;;;;;6159273;23;20480;-81
2022/03/23 06:46:52;;;;;;;49.03;22.85;;;4.90;99.90;;;;;;6159617;23;20096;-82
2022/03/23 06:49:18;;;;;;;44.05;19.67;;;5.10;99.90;;;;;;6161141;23;20031;-82
2022/03/23 06:51:44;;;;;;;46.28;21.30;;;5.20;99.90;;;;;;6163352;23;20013;-82
2022/03/23 06:54:09;;;;;;;42.45;19.50;;;5.20;99.90;;;;;;6161365;23;20040;-84
2022/03/23 06:56:35;;;;;;;48.40;21.77;;;5.40;99.90;;;;;;6162377;23;20020;-82
2022/03/23 06:59:03;;;;;;;52.78;21.48;;;5.50;99.90;;;;;;6162502;23;20036;-83
2022/03/23 07:01:29;;;;;;;50.60;21.98;;;5.70;99.90;;;;;;6161161;23;20064;-82
2022/03/23 07:03:55;;;;;;;45.60;21.75;;;5.80;99.90;;;;;;6159912;23;20017;-82
2022/03/23 07:06:20;;;;;;;49.80;22.77;;;6.10;99.90;;;;;;6137405;23;20108;-81
2022/03/23 07:11:30;;;;;;;52.50;25.63;;;6.70;99.90;;;;;;6160675;23;20035;-81
2022/03/23 07:13:57;;;;;;;56.70;25.33;;;7.00;99.90;;;;;;6136863;23;20040;-81
2022/03/23 07:16:22;;;;;;;50.63;24.20;;;7.30;99.90;;;;;;6136620;23;20013;-81
2022/03/23 07:18:49;;;;;;;53.10;24.23;;;7.50;99.90;;;;;;6162807;23;20017;-81
2022/03/23 07:21:14;;;;;;;47.90;21.35;;;7.80;99.90;;;;;;6159752;23;20024;-81
2022/03/23 07:23:40;;;;;;;45.28;20.88;;;8.40;99.90;;;;;;6161411;23;20009;-81
2022/03/23 07:26:07;;;;;;;42.72;21.00;;;9.20;99.90;;;;;;6160614;23;20071;-81
2022/03/23 07:28:33;;;;;;;38.40;20.20;;;10.00;99.90;;;;;;6161532;23;20020;-82
2022/03/23 07:30:59;;;;;;;44.25;21.20;;;10.70;99.90;;;;;;6159645;23;20041;-82
2022/03/23 07:33:25;;;;;;;45.58;22.65;;;11.40;99.90;;;;;;6160402;23;20084;-82
2022/03/23 07:35:51;;;;;;;38.97;20.70;;;11.90;99.90;;;;;;6160729;23;20063;-82
2022/03/23 07:38:17;;;;;;;43.75;21.58;;;12.50;99.90;;;;;;6161395;23;20008;-82
2022/03/23 07:40:43;;;;;;;41.92;20.77;;;13.00;99.90;;;;;;6134912;23;20335;-83
2022/03/23 07:43:08;;;;;;;43.80;21.35;;;13.30;99.90;;;;;;6133247;23;20013;-82
2022/03/23 07:45:34;;;;;;;33.38;18.80;;;13.70;99.90;;;;;;6157475;23;20107;-83
2022/03/23 07:47:59;;;;;;;34.58;19.77;;;13.90;99.90;;;;;;6133184;23;20013;-83
2022/03/23 07:50:25;;;;;;;37.10;19.92;;;14.20;99.90;;;;;;6157375;23;20020;-83
2022/03/23 07:52:51;;;;;;;38.50;19.55;;;14.40;99.90;;;;;;6157541;23;20359;-83
2022/03/23 07:55:17;;;;;;;39.20;20.75;;;14.70;99.90;;;;;;6160715;23;20067;-82
2022/03/23 07:57:43;;;;;;;35.22;19.70;;;15.10;99.90;;;;;;6160476;23;20013;-82
2022/03/23 08:00:09;;;;;;;34.45;20.50;;;15.50;99.90;;;;;;6160000;23;20079;-83
2022/03/23 08:02:35;;;;;;;35.00;20.83;;;15.90;99.90;;;;;;6160754;23;20353;-83
2022/03/23 08:05:00;;;;;;;38.83;20.38;;;16.10;99.90;;;;;;6160057;23;20014;-83
2022/03/23 08:07:26;;;;;;;39.40;20.83;;;16.30;99.90;;;;;;6159861;23;20410;-82
2022/03/23 08:09:51;;;;;;;33.72;19.92;;;16.50;99.90;;;;;;6159753;23;20374;-83
2022/03/23 08:12:17;;;;;;;30.52;19.90;;;16.50;99.90;;;;;;6159585;23;20021;-83
2022/03/23 08:14:46;;;;;;;35.22;20.83;;;16.50;99.90;;;;;;6186621;23;20017;-82
2022/03/23 08:17:12;;;;;;;39.45;20.75;;;16.60;99.90;;;;;;6160375;23;20028;-82
2022/03/23 08:19:38;;;;;;;35.92;19.23;;;16.70;99.90;;;;;;6159885;23;20021;-82
2022/03/23 08:22:05;;;;;;;38.60;21.95;;;16.90;99.90;;;;;;6159370;23;20458;-83
2022/03/23 08:24:31;;;;;;;28.88;18.65;;;17.00;99.90;;;;;;6134387;23;20390;-83
2022/03/23 08:26:58;;;;;;;28.83;18.25;;;17.10;99.90;;;;;;6158685;23;20023;-83
2022/03/23 08:29:24;;;;;;;31.08;17.00;;;17.10;99.90;;;;;;6134185;23;20473;-82
2022/03/23 08:31:49;;;;;;;33.47;18.90;;;17.10;99.90;;;;;;6158089;23;20013;-82
2022/03/23 08:34:15;;;;;;;30.52;18.20;;;17.00;99.90;;;;;;6158792;23;20016;-82
2022/03/23 08:36:40;;;;;;;29.67;17.13;;;16.80;99.90;;;;;;6158844;23;20027;-82
2022/03/23 08:39:06;;;;;;;28.25;18.50;;;16.90;99.50;;;;;;6159065;23;20021;-83
2022/03/23 08:41:31;;;;;;;26.02;16.73;;;17.20;98.90;;;;;;6158628;23;20019;-83
2022/03/23 08:43:57;;;;;;;23.75;16.45;;;17.40;95.90;;;;;;6159238;23;20020;-83
2022/03/23 08:46:23;;;;;;;24.20;17.20;;;17.50;95.30;;;;;;6135231;23;20083;-83
2022/03/23 08:48:49;;;;;;;30.40;18.50;;;17.60;91.90;;;;;;6135187;23;20445;-82
2022/03/23 08:51:16;;;;;;;27.02;17.80;;;17.60;90.60;;;;;;6160132;23;20037;-82
2022/03/23 08:53:42;;;;;;;30.88;17.25;;;17.90;88.20;;;;;;6159774;23;20466;-82
2022/03/23 08:56:09;;;;;;;29.60;17.02;;;18.20;83.80;;;;;;6159533;23;20016;-82
2022/03/23 08:58:35;;;;;;;27.27;16.77;;;18.30;78.90;;;;;;6159441;23;20009;-82
2022/03/23 09:01:01;;;;;;;28.33;16.52;;;18.50;74.70;;;;;;6158883;23;20056;-83
2022/03/23 09:03:26;;;;;;;22.95;15.02;;;18.40;70.40;;;;;;6157609;23;20017;-82
2022/03/23 09:05:52;;;;;;;22.60;14.85;;;18.40;70.00;;;;;;6158082;23;20009;-83
2022/03/23 09:08:18;;;;;;;23.10;15.48;;;18.30;67.10;;;;;;6157689;23;20012;-82
2022/03/23 09:10:43;;;;;;;26.10;15.45;;;18.20;65.80;;;;;;6157072;23;20041;-83
2022/03/23 09:13:09;;;;;;;21.95;14.75;;;18.30;62.60;;;;;;6158958;23;20020;-82
2022/03/23 09:15:35;;;;;;;24.25;14.75;;;18.60;58.90;;;;;;6158430;23;20409;-83
2022/03/23 09:18:02;;;;;;;20.25;15.23;;;18.80;57.00;;;;;;6158348;23;20346;-83
2022/03/23 09:20:28;;;;;;;23.75;13.48;;;18.80;53.90;;;;;;6156816;23;20024;-80
2022/03/23 09:22:55;;;;;;;22.90;14.52;;;18.80;53.70;;;;;;6155346;23;20021;-82
2022/03/23 09:25:24;;;;;;;25.33;15.55;;;18.70;50.90;;;;;;6156288;23;20017;-84
2022/03/23 09:27:51;;;;;;;22.38;13.45;;;18.60;51.80;;;;;;6130576;23;20327;-83
2022/03/23 09:30:17;;;;;;;19.63;12.75;;;18.60;50.20;;;;;;6154466;23;20010;-83
2022/03/23 09:32:44;;;;;;;18.38;12.70;;;18.60;49.80;;;;;;6130251;23;20008;-83
2022/03/23 09:35:10;;;;;;;16.00;12.32;;;18.60;48.70;;;;;;6155147;23;20096;-84
2022/03/23 09:37:48;;;;;;;21.33;13.05;;;18.70;48.30;;;;;;6155252;23;20017;-84
2022/03/23 09:40:25;;;;;;;22.00;14.30;;;18.90;47.70;;;;;;6154733;23;20025;-83
2022/03/23 09:43:03;;;;;;;17.50;12.70;;;19.10;46.00;;;;;;6157215;23;20175;-82
2022/03/23 09:48:06;;;;;;;19.60;13.43;;;19.60;46.40;;;;;;6159040;23;20028;-82
2022/03/23 09:50:33;;;;;;;19.38;13.45;;;19.60;46.20;;;;;;6158686;23;20021;-82
2022/03/23 09:53:00;;;;;;;20.55;13.35;;;19.60;45.70;;;;;;6157863;23;20012;-82
2022/03/23 09:55:26;;;;;;;21.20;13.07;;;19.60;45.70;;;;;;6158897;23;20009;-82
2022/03/23 09:57:56;;;;;;;21.13;13.25;;;19.60;45.60;;;;;;6158960;23;20465;-82
2022/03/23 10:00:23;;;;;;;22.88;13.63;;;19.70;43.60;;;;;;6157727;23;20017;-83
2022/03/23 10:02:58;;;;;;;20.77;13.75;;;19.80;44.90;;;;;;6158795;23;20017;-82
2022/03/23 10:06:21;;;;;;;21.27;15.18;;;20.10;42.20;;;;;;6133371;23;20020;-83
2022/03/23 10:09:14;;;;;;;18.85;12.23;;;20.10;40.50;;;;;;6068192;23;20014;-82
2022/03/23 10:12:17;;;;;;;28.65;15.32;;;20.00;41.80;;;;;;6068199;23;20014;-83
2022/03/23 10:15:33;;;;;;;20.25;13.77;;;19.90;41.60;;;;;;6148551;23;20374;-83
2022/03/23 10:18:37;;;;;;;26.88;14.15;;;19.80;42.30;;;;;;6157521;23;20450;-82
2022/03/23 10:21:03;;;;;;;20.75;13.98;;;19.80;40.10;;;;;;6157526;23;20024;-84
2022/03/23 10:23:30;;;;;;;19.15;13.27;;;19.80;43.70;;;;;;6156968;23;20009;-82
2022/03/23 10:25:55;;;;;;;23.17;13.07;;;19.70;43.60;;;;;;6157016;23;20013;-82
2022/03/23 10:28:21;;;;;;;16.73;12.70;;;19.50;43.30;;;;;;6157184;23;20075;-82
2022/03/23 10:30:47;;;;;;;16.45;12.77;;;19.30;43.80;;;;;;6157318;23;20017;-82
2022/03/23 10:33:31;;;;;;;19.45;13.63;;;19.10;44.00;;;;;;6132515;23;20009;-83
2022/03/23 10:36:00;;;;;;;22.63;13.70;;;18.90;40.90;;;;;;6161237;23;20410;-81
2022/03/23 10:38:26;;;;;;;19.08;12.80;;;18.60;44.30;;;;;;6159470;23;20442;-83
2022/03/23 10:40:52;;;;;;;19.45;11.82;;;18.60;44.50;;;;;;6157013;23;20024;-83
2022/03/23 10:43:33;;;;;;;19.67;12.60;;;18.50;43.90;;;;;;6157585;23;20145;-82
2022/03/23 10:46:26;;;;;;;19.95;12.80;;;18.40;44.00;;;;;;6164118;23;20041;-82
2022/03/23 10:49:02;;;;;;;20.85;12.10;;;18.40;43.70;;;;;;6161270;23;20354;-83
2022/03/23 10:51:35;;;;;;;17.23;11.63;;;18.40;43.00;;;;;;6132334;23;20056;-83
2022/03/23 10:54:19;;;;;;;18.55;12.30;;;18.40;41.30;;;;;;6134133;23;20125;-84
2022/03/23 10:56:45;;;;;;;16.23;11.80;;;18.40;40.30;;;;;;6132828;23;20020;-81
2022/03/23 10:59:28;;;;;;;18.05;11.48;;;18.20;42.50;;;;;;6159639;23;20024;-83
2022/03/23 11:02:04;;;;;;;16.55;11.15;;;18.20;42.20;;;;;;6135765;23;20013;-83
2022/03/23 11:04:46;;;;;;;19.83;11.88;;;18.20;41.30;;;;;;6165282;23;20048;-83
2022/03/23 11:07:41;;;;;;;18.67;11.52;;;18.30;42.80;;;;;;6166303;23;20028;-83
2022/03/23 11:15:46;;;;;;;23.05;13.05;;;18.70;43.30;;;;;;6162229;23;20024;-83
2022/03/23 11:18:17;;;;;;;22.95;13.18;;;18.90;43.10;;;;;;6158206;23;20025;-83
2022/03/23 11:20:51;;;;;;;16.03;11.40;;;18.90;42.80;;;;;;6157634;23;20088;-83
2022/03/23 11:23:30;;;;;;;20.88;10.98;;;19.00;42.00;;;;;;6157577;23;20036;-83
2022/03/23 11:26:00;;;;;;;15.07;11.35;;;19.10;42.30;;;;;;6157135;23;20017;-82
2022/03/23 11:28:28;;;;;;;16.25;8.45;;;19.10;41.80;;;;;;6158386;23;20047;-82
2022/03/23 11:30:55;;;;;;;19.45;8.68;;;19.00;41.90;;;;;;6162295;23;20009;-83
2022/03/23 11:33:23;;;;;;;16.85;8.60;;;19.00;41.60;;;;;;6160104;23;20323;-83
2022/03/23 11:35:50;;;;;;;17.67;8.23;;;19.00;41.00;;;;;;6161789;23;20083;-83
2022/03/23 11:38:21;;;;;;;16.98;9.60;;;19.00;41.50;;;;;;6159896;23;20013;-83
2022/03/23 11:40:48;;;;;;;16.85;10.13;;;19.00;41.00;;;;;;6161013;23;20016;-83
2022/03/23 11:43:16;;;;;;;16.38;10.05;;;19.10;40.70;;;;;;6159616;23;20073;-84
2022/03/23 11:45:46;;;;;;;19.98;11.65;;;19.10;40.50;;;;;;6161927;23;20017;-83
2022/03/23 11:48:16;;;;;;;17.33;10.82;;;19.10;40.50;;;;;;6136392;23;20012;-84
2022/03/23 11:51:10;;;;;;;18.45;12.70;;;19.10;41.10;;;;;;6163733;23;20017;-83
2022/03/23 11:53:40;;;;;;;19.80;10.73;;;19.30;40.90;;;;;;6160425;23;20091;-84
2022/03/23 11:56:06;;;;;;;20.83;11.18;;;19.30;40.40;;;;;;6159930;23;20347;-83
2022/03/23 11:58:37;;;;;;;19.77;10.45;;;19.20;40.90;;;;;;6159659;23;20017;-83
2022/03/23 12:01:29;;;;;;;17.50;10.40;;;19.20;40.00;;;;;;6160363;23;20032;-85
2022/03/23 12:04:02;;;;;;;16.83;11.95;;;19.20;39.90;;;;;;6161087;23;20013;-84
2022/03/23 12:06:39;;;;;;;18.48;11.10;;;19.30;40.30;;;;;;6161509;23;20020;-84
2022/03/23 12:09:05;;;;;;;18.65;10.85;;;19.40;39.30;;;;;;6160932;23;20045;-84
2022/03/23 12:11:31;;;;;;;17.23;10.75;;;19.50;41.20;;;;;;6160687;23;20009;-81
2022/03/23 12:13:59;;;;;;;18.70;11.52;;;19.50;41.10;;;;;;6159178;23;20013;-81
2022/03/23 12:16:46;;;;;;;23.70;11.75;;;19.60;41.00;;;;;;6159866;23;20017;-82
2022/03/23 12:19:16;;;;;;;17.08;11.65;;;19.60;40.20;;;;;;6134332;23;20068;-82
2022/03/23 12:22:03;;;;;;;19.55;11.05;;;19.60;40.40;;;;;;6158967;23;20020;-81
2022/03/23 12:25:07;;;;;;;18.33;9.43;;;19.50;40.10;;;;;;6159617;23;20394;-82
2022/03/23 12:27:45;;;;;;;15.85;8.95;;;19.60;40.70;;;;;;6114551;23;20024;-82
2022/03/23 12:30:31;;;;;;;19.80;8.50;;;19.70;40.70;;;;;;6159091;23;20017;-80
2022/03/23 12:33:00;;;;;;;21.08;10.90;;;19.70;40.10;;;;;;6158993;23;20090;-82
2022/03/23 12:35:33;;;;;;;18.63;9.35;;;19.70;41.50;;;;;;6136045;23;20090;-81
2022/03/23 12:38:01;;;;;;;20.50;9.20;;;19.70;41.00;;;;;;6159825;23;20100;-81
2022/03/23 12:40:44;;;;;;;15.82;8.40;;;19.60;41.30;;;;;;6158660;23;20092;-81
2022/03/23 12:43:29;;;;;;;19.27;8.48;;;19.60;40.10;;;;;;6159098;23;20028;-81
2022/03/23 12:45:55;;;;;;;20.48;8.07;;;19.50;41.40;;;;;;6162208;23;20072;-81
2022/03/23 12:59:22;;;;;;;16.42;6.45;;;19.40;40.60;;;;;;6159375;23;20075;-83
2022/03/23 13:01:54;;;;;;;19.13;8.45;;;19.30;41.00;;;;;;6136204;23;20013;-83
2022/03/23 13:04:40;;;;;;;20.27;9.50;;;19.30;41.00;;;;;;6162165;23;20109;-81
2022/03/23 13:07:24;;;;;;;16.23;8.57;;;19.40;40.90;;;;;;6161193;23;20111;-81
2022/03/23 13:09:50;;;;;;;16.45;8.65;;;19.50;40.70;;;;;;6160623;23;20020;-81
2022/03/23 13:12:22;;;;;;;18.10;6.68;;;19.60;40.90;;;;;;6159824;23;20090;-82
2022/03/23 13:14:47;;;;;;;14.60;6.22;;;19.50;40.30;;;;;;6159096;23;20016;-82